sensor_id;sensor_type;location;lat;lon;timestamp;pressure;altitude;pressure_sealevel;temperature;humidity
31121;BME280;17770;45.966;13.632;2023-08-12T00:01:58;101163.63;;;28.61;47.09
31121;BME280;17770;45.966;13.632;2023-08-12T00:04:23;101164.34;;;28.63;46.84
31121;BME280;17770;45.966;13.632;2023-08-12T00:06:49;101159.03;;;28.63;46.90
31121;BME280;17770;45.966;13.632;2023-08-12T00:09:15;101163.50;;;28.63;47.02
31121;BME280;17770;45.966;13.632;2023-08-12T00:11:41;101157.66;;;28.59;46.89
31121;BME280;17770;45.966;13.632;2023-08-12T00:14:07;101162.13;;;28.59;46.75
31121;BME280;17770;45.966;13.632;2023-08-12T00:16:32;101151.63;;;28.57;46.96
31121;BME280;17770;45.966;13.632;2023-08-12T00:18:58;101161.69;;;28.54;47.21
31121;BME280;17770;45.966;13.632;2023-08-12T00:21:25;101152.00;;;28.43;47.13
31121;BME280;17770;45.966;13.632;2023-08-12T00:23:51;101154.16;;;28.49;46.78
31121;BME280;17770;45.966;13.632;2023-08-12T00:26:16;101151.50;;;28.49;47.15
31121;BME280;17770;45.966;13.632;2023-08-12T00:28:42;101143.66;;;28.48;47.04
31121;BME280;17770;45.966;13.632;2023-08-12T00:31:08;101139.31;;;28.47;47.24
31121;BME280;17770;45.966;13.632;2023-08-12T00:33:34;101148.25;;;28.46;46.73
31121;BME280;17770;45.966;13.632;2023-08-12T00:36:00;101137.06;;;28.42;46.84
31121;BME280;17770;45.966;13.632;2023-08-12T00:38:27;101133.72;;;28.40;46.78
31121;BME280;17770;45.966;13.632;2023-08-12T00:40:53;101140.69;;;28.41;46.72
31121;BME280;17770;45.966;13.632;2023-08-12T00:43:19;101146.28;;;28.38;46.96
31121;BME280;17770;45.966;13.632;2023-08-12T00:45:45;101140.97;;;28.38;46.88
31121;BME280;17770;45.966;13.632;2023-08-12T00:48:11;101148.25;;;28.36;47.16
31121;BME280;17770;45.966;13.632;2023-08-12T00:50:37;101142.25;;;28.34;46.82
31121;BME280;17770;45.966;13.632;2023-08-12T00:53:03;101138.88;;;28.32;47.05
31121;BME280;17770;45.966;13.632;2023-08-12T00:55:32;101141.97;;;28.28;47.02
31121;BME280;17770;45.966;13.632;2023-08-12T00:57:58;101139.31;;;28.28;47.04
31121;BME280;17770;45.966;13.632;2023-08-12T01:00:24;101139.47;;;28.26;47.10
31121;BME280;17770;45.966;13.632;2023-08-12T01:02:50;101136.25;;;28.23;47.42
31121;BME280;17770;45.966;13.632;2023-08-12T01:05:18;101147.66;;;28.23;47.18
31121;BME280;17770;45.966;13.632;2023-08-12T01:07:44;101142.38;;;28.23;47.40
31121;BME280;17770;45.966;13.632;2023-08-12T01:10:12;101148.81;;;28.21;47.27
31121;BME280;17770;45.966;13.632;2023-08-12T01:12:52;101147.00;;;28.21;47.20
31121;BME280;17770;45.966;13.632;2023-08-12T01:15:21;101147.13;;;28.20;47.16
31121;BME280;17770;45.966;13.632;2023-08-12T01:17:48;101148.25;;;28.17;47.37
31121;BME280;17770;45.966;13.632;2023-08-12T01:20:17;101146.72;;;28.14;47.38
31121;BME280;17770;45.966;13.632;2023-08-12T01:22:52;101143.06;;;28.15;47.15
31121;BME280;17770;45.966;13.632;2023-08-12T01:25:21;101143.34;;;28.12;47.58
31121;BME280;17770;45.966;13.632;2023-08-12T01:27:47;101136.50;;;28.10;47.07
31121;BME280;17770;45.966;13.632;2023-08-12T01:30:14;101133.84;;;28.10;47.34
31121;BME280;17770;45.966;13.632;2023-08-12T01:35:14;101132.47;;;28.06;47.29
31121;BME280;17770;45.966;13.632;2023-08-12T01:37:41;101129.09;;;28.04;47.14
31121;BME280;17770;45.966;13.632;2023-08-12T01:40:08;101132.84;;;28.01;47.38
31121;BME280;17770;45.966;13.632;2023-08-12T01:42:35;101128.38;;;28.02;47.05
31121;BME280;17770;45.966;13.632;2023-08-12T01:45:02;101129.53;;;27.99;47.32
31121;BME280;17770;45.966;13.632;2023-08-12T01:47:28;101116.41;;;27.98;47.08
31121;BME280;17770;45.966;13.632;2023-08-12T01:49:54;101121.94;;;27.95;47.04
31121;BME280;17770;45.966;13.632;2023-08-12T01:52:22;101123.06;;;27.92;47.07
31121;BME280;17770;45.966;13.632;2023-08-12T01:54:48;101118.63;;;27.93;47.10
31121;BME280;17770;45.966;13.632;2023-08-12T01:57:14;101113.47;;;27.91;47.20
31121;BME280;17770;45.966;13.632;2023-08-12T01:59:40;101115.25;;;27.91;47.00
31121;BME280;17770;45.966;13.632;2023-08-12T02:02:06;101112.75;;;27.89;47.38
31121;BME280;17770;45.966;13.632;2023-08-12T02:04:32;101104.19;;;27.86;47.21
31121;BME280;17770;45.966;13.632;2023-08-12T02:06:58;101112.00;;;27.87;47.60
31121;BME280;17770;45.966;13.632;2023-08-12T02:09:24;101108.66;;;27.85;47.07
31121;BME280;17770;45.966;13.632;2023-08-12T02:11:50;101105.28;;;27.83;47.31
31121;BME280;17770;45.966;13.632;2023-08-12T02:14:16;101103.06;;;27.79;47.69
31121;BME280;17770;45.966;13.632;2023-08-12T02:16:42;101105.84;;;27.77;47.64
31121;BME280;17770;45.966;13.632;2023-08-12T02:19:08;101110.59;;;27.74;47.67
31121;BME280;17770;45.966;13.632;2023-08-12T02:21:34;101109.06;;;27.71;47.39
31121;BME280;17770;45.966;13.632;2023-08-12T02:23:59;101112.22;;;27.65;47.73
31121;BME280;17770;45.966;13.632;2023-08-12T02:26:25;101113.38;;;27.72;47.45
31121;BME280;17770;45.966;13.632;2023-08-12T02:28:51;101109.06;;;27.71;47.35
31121;BME280;17770;45.966;13.632;2023-08-12T02:31:17;101112.81;;;27.69;47.71
31121;BME280;17770;45.966;13.632;2023-08-12T02:33:43;101109.06;;;27.71;47.77
31121;BME280;17770;45.966;13.632;2023-08-12T02:36:09;101110.72;;;27.72;47.82
31121;BME280;17770;45.966;13.632;2023-08-12T02:38:35;101103.69;;;27.62;48.27
31121;BME280;17770;45.966;13.632;2023-08-12T02:41:01;101111.13;;;27.68;47.89
31121;BME280;17770;45.966;13.632;2023-08-12T02:43:28;101114.50;;;27.70;47.90
31121;BME280;17770;45.966;13.632;2023-08-12T02:45:54;101113.66;;;27.69;47.69
31121;BME280;17770;45.966;13.632;2023-08-12T02:48:20;101111.00;;;27.69;47.61
31121;BME280;17770;45.966;13.632;2023-08-12T02:50:46;101105.00;;;27.67;48.03
31121;BME280;17770;45.966;13.632;2023-08-12T02:53:12;101108.63;;;27.66;47.91
31121;BME280;17770;45.966;13.632;2023-08-12T02:55:38;101102.47;;;27.66;48.08
31121;BME280;17770;45.966;13.632;2023-08-12T02:58:04;101104.28;;;27.65;48.29
31121;BME280;17770;45.966;13.632;2023-08-12T03:00:30;101095.66;;;27.63;47.89
31121;BME280;17770;45.966;13.632;2023-08-12T03:02:56;101105.25;;;27.55;48.17
31121;BME280;17770;45.966;13.632;2023-08-12T03:05:22;101101.44;;;27.48;48.20
31121;BME280;17770;45.966;13.632;2023-08-12T03:07:48;101105.22;;;27.45;48.13
31121;BME280;17770;45.966;13.632;2023-08-12T03:10:14;101098.38;;;27.43;48.24
31121;BME280;17770;45.966;13.632;2023-08-12T03:12:40;101102.00;;;27.42;48.29
31121;BME280;17770;45.966;13.632;2023-08-12T03:15:06;101104.78;;;27.40;48.35
31121;BME280;17770;45.966;13.632;2023-08-12T03:17:33;101106.72;;;27.38;48.36
31121;BME280;17770;45.966;13.632;2023-08-12T03:19:59;101105.75;;;27.39;48.29
31121;BME280;17770;45.966;13.632;2023-08-12T03:22:29;101105.03;;;27.37;48.39
31121;BME280;17770;45.966;13.632;2023-08-12T03:24:55;101100.72;;;27.36;48.22
31121;BME280;17770;45.966;13.632;2023-08-12T03:27:21;101102.66;;;27.34;48.47
31121;BME280;17770;45.966;13.632;2023-08-12T03:29:46;101104.59;;;27.32;48.53
31121;BME280;17770;45.966;13.632;2023-08-12T03:32:13;101102.94;;;27.31;48.34
31121;BME280;17770;45.966;13.632;2023-08-12T03:34:39;101090.53;;;27.32;48.34
31121;BME280;17770;45.966;13.632;2023-08-12T03:37:06;101099.59;;;27.39;48.20
31121;BME280;17770;45.966;13.632;2023-08-12T03:39:32;101104.66;;;27.42;48.42
31121;BME280;17770;45.966;13.632;2023-08-12T03:41:59;101104.66;;;27.42;48.06
31121;BME280;17770;45.966;13.632;2023-08-12T03:44:25;101107.16;;;27.43;48.29
31121;BME280;17770;45.966;13.632;2023-08-12T03:46:52;101105.44;;;27.33;48.26
31121;BME280;17770;45.966;13.632;2023-08-12T03:49:18;101112.06;;;27.27;48.28
31121;BME280;17770;45.966;13.632;2023-08-12T03:51:45;101109.56;;;27.26;48.43
31121;BME280;17770;45.966;13.632;2023-08-12T03:54:10;101114.84;;;27.26;48.32
31121;BME280;17770;45.966;13.632;2023-08-12T03:56:36;101113.31;;;27.23;48.65
31121;BME280;17770;45.966;13.632;2023-08-12T03:59:03;101109.81;;;27.23;48.75
31121;BME280;17770;45.966;13.632;2023-08-12T04:01:29;101114.41;;;27.21;48.53
31121;BME280;17770;45.966;13.632;2023-08-12T04:03:55;101114.50;;;27.30;48.46
31121;BME280;17770;45.966;13.632;2023-08-12T04:06:21;101117.97;;;27.31;48.38
31121;BME280;17770;45.966;13.632;2023-08-12T04:08:47;101113.66;;;27.30;48.09
31121;BME280;17770;45.966;13.632;2023-08-12T04:11:13;101114.50;;;27.30;48.10
31121;BME280;17770;45.966;13.632;2023-08-12T04:13:40;101120.75;;;27.29;48.12
31121;BME280;17770;45.966;13.632;2023-08-12T04:16:06;101118.03;;;27.20;48.74
31121;BME280;17770;45.966;13.632;2023-08-12T04:18:32;101116.69;;;27.25;48.47
31121;BME280;17770;45.966;13.632;2023-08-12T04:20:59;101114.19;;;27.24;48.66
31121;BME280;17770;45.966;13.632;2023-08-12T04:23:25;101115.97;;;27.23;48.16
31121;BME280;17770;45.966;13.632;2023-08-12T04:25:52;101120.41;;;27.23;48.18
31121;BME280;17770;45.966;13.632;2023-08-12T04:28:19;101116.25;;;27.20;48.10
31121;BME280;17770;45.966;13.632;2023-08-12T04:30:48;101122.22;;;27.22;48.10
31121;BME280;17770;45.966;13.632;2023-08-12T04:33:16;101110.09;;;27.20;48.06
31121;BME280;17770;45.966;13.632;2023-08-12T04:35:42;101108.28;;;27.20;48.39
31121;BME280;17770;45.966;13.632;2023-08-12T04:38:08;101111.91;;;27.19;48.36
31121;BME280;17770;45.966;13.632;2023-08-12T04:40:38;101110.22;;;27.18;48.01
31121;BME280;17770;45.966;13.632;2023-08-12T04:43:04;101112.03;;;27.18;48.25
31121;BME280;17770;45.966;13.632;2023-08-12T04:45:30;101113.97;;;27.16;48.08
31121;BME280;17770;45.966;13.632;2023-08-12T04:47:56;101107.00;;;27.15;48.19
31121;BME280;17770;45.966;13.632;2023-08-12T04:50:22;101111.47;;;27.14;47.95
31121;BME280;17770;45.966;13.632;2023-08-12T04:52:48;101109.66;;;27.15;48.12
31121;BME280;17770;45.966;13.632;2023-08-12T04:55:15;101104.75;;;27.10;47.74
31121;BME280;17770;45.966;13.632;2023-08-12T04:57:43;101114.38;;;27.11;47.75
31121;BME280;17770;45.966;13.632;2023-08-12T05:00:09;101111.88;;;27.10;47.83
31121;BME280;17770;45.966;13.632;2023-08-12T05:02:35;101112.72;;;27.10;48.16
31121;BME280;17770;45.966;13.632;2023-08-12T05:05:01;101119.81;;;27.10;47.99
31121;BME280;17770;45.966;13.632;2023-08-12T05:07:28;101116.31;;;27.09;47.84
31121;BME280;17770;45.966;13.632;2023-08-12T05:09:54;101118.16;;;27.09;47.99
31121;BME280;17770;45.966;13.632;2023-08-12T05:12:20;101120.78;;;27.09;48.00
31121;BME280;17770;45.966;13.632;2023-08-12T05:14:46;101116.13;;;27.01;48.64
31121;BME280;17770;45.966;13.632;2023-08-12T05:17:12;101119.63;;;27.02;48.58
31121;BME280;17770;45.966;13.632;2023-08-12T05:19:38;101112.41;;;27.04;48.34
31121;BME280;17770;45.966;13.632;2023-08-12T05:22:04;101108.91;;;27.03;48.08
31121;BME280;17770;45.966;13.632;2023-08-12T05:24:30;101111.56;;;27.03;48.47
31121;BME280;17770;45.966;13.632;2023-08-12T05:26:55;101110.56;;;27.04;48.37
31121;BME280;17770;45.966;13.632;2023-08-12T05:29:21;101119.63;;;27.02;48.19
31121;BME280;17770;45.966;13.632;2023-08-12T05:31:47;101112.53;;;27.02;48.16
31121;BME280;17770;45.966;13.632;2023-08-12T05:34:13;101108.91;;;27.03;48.09
31121;BME280;17770;45.966;13.632;2023-08-12T05:36:39;101117.97;;;27.01;47.97
31121;BME280;17770;45.966;13.632;2023-08-12T05:39:05;101109.31;;;26.99;47.79
31121;BME280;17770;45.966;13.632;2023-08-12T05:41:31;101111.19;;;26.87;48.19
31121;BME280;17770;45.966;13.632;2023-08-12T05:43:57;101108.50;;;26.77;48.65
31121;BME280;17770;45.966;13.632;2023-08-12T05:46:23;101104.75;;;26.80;48.67
31121;BME280;17770;45.966;13.632;2023-08-12T05:48:49;101105.00;;;26.77;48.16
31121;BME280;17770;45.966;13.632;2023-08-12T05:51:14;101104.88;;;26.78;48.47
31121;BME280;17770;45.966;13.632;2023-08-12T05:53:40;101101.38;;;26.78;48.35
31121;BME280;17770;45.966;13.632;2023-08-12T05:56:06;101112.22;;;26.75;48.66
31121;BME280;17770;45.966;13.632;2023-08-12T05:58:32;101110.28;;;26.77;48.61
31121;BME280;17770;45.966;13.632;2023-08-12T06:00:58;101104.16;;;26.76;48.59
31121;BME280;17770;45.966;13.632;2023-08-12T06:03:24;101107.50;;;26.78;48.07
31121;BME280;17770;45.966;13.632;2023-08-12T06:05:49;101105.00;;;26.77;48.06
31121;BME280;17770;45.966;13.632;2023-08-12T06:08:15;101111.16;;;26.77;48.47
31121;BME280;17770;45.966;13.632;2023-08-12T06:10:41;101103.31;;;26.76;48.36
31121;BME280;17770;45.966;13.632;2023-08-12T06:13:07;101106.09;;;26.74;48.69
31121;BME280;17770;45.966;13.632;2023-08-12T06:15:33;101106.09;;;26.74;48.28
31121;BME280;17770;45.966;13.632;2023-08-12T06:18:02;101106.22;;;26.73;48.14
31121;BME280;17770;45.966;13.632;2023-08-12T06:20:28;101103.56;;;26.73;48.66
31121;BME280;17770;45.966;13.632;2023-08-12T06:22:54;101108.88;;;26.73;48.03
31121;BME280;17770;45.966;13.632;2023-08-12T06:25:20;101112.88;;;26.67;48.77
31121;BME280;17770;45.966;13.632;2023-08-12T06:27:46;101109.97;;;26.70;48.53
31121;BME280;17770;45.966;13.632;2023-08-12T06:30:12;101104.94;;;26.67;49.07
31121;BME280;17770;45.966;13.632;2023-08-12T06:32:39;101102.75;;;26.61;48.80
31121;BME280;17770;45.966;13.632;2023-08-12T06:35:05;101102.03;;;26.70;49.12
31121;BME280;17770;45.966;13.632;2023-08-12T06:37:31;101112.19;;;26.65;49.25
31121;BME280;17770;45.966;13.632;2023-08-12T06:39:57;101103.47;;;26.63;49.39
31121;BME280;17770;45.966;13.632;2023-08-12T06:42:22;101108.41;;;26.68;49.37
31121;BME280;17770;45.966;13.632;2023-08-12T06:44:53;101104.94;;;26.67;49.05
31121;BME280;17770;45.966;13.632;2023-08-12T06:47:19;101098.13;;;26.74;49.11
31121;BME280;17770;45.966;13.632;2023-08-12T06:49:45;101106.53;;;26.79;48.97
31121;BME280;17770;45.966;13.632;2023-08-12T06:52:11;101103.63;;;26.82;48.72
31121;BME280;17770;45.966;13.632;2023-08-12T06:54:37;101098.66;;;26.89;48.88
31121;BME280;17770;45.966;13.632;2023-08-12T06:57:03;101097.19;;;26.75;48.88
31121;BME280;17770;45.966;13.632;2023-08-12T06:59:29;101100.91;;;26.73;49.06
31121;BME280;17770;45.966;13.632;2023-08-12T07:01:55;101103.56;;;26.73;49.19
31121;BME280;17770;45.966;13.632;2023-08-12T07:04:21;101099.13;;;26.73;49.30
31121;BME280;17770;45.966;13.632;2023-08-12T07:06:47;101096.47;;;26.73;49.34
31121;BME280;17770;45.966;13.632;2023-08-12T07:09:13;101094.81;;;26.72;49.46
31121;BME280;17770;45.966;13.632;2023-08-12T07:11:38;101099.97;;;26.74;49.74
31121;BME280;17770;45.966;13.632;2023-08-12T07:14:04;101090.19;;;26.74;49.23
31121;BME280;17770;45.966;13.632;2023-08-12T07:16:30;101101.78;;;26.73;49.81
31121;BME280;17770;45.966;13.632;2023-08-12T07:18:56;101098.13;;;26.74;49.53
31121;BME280;17770;45.966;13.632;2023-08-12T07:21:22;101095.50;;;26.74;49.03
31121;BME280;17770;45.966;13.632;2023-08-12T07:23:48;101109.06;;;26.81;48.96
31121;BME280;17770;45.966;13.632;2023-08-12T07:26:14;101097.09;;;26.86;48.95
31121;BME280;17770;45.966;13.632;2023-08-12T07:28:40;101094.19;;;26.89;48.67
31121;BME280;17770;45.966;13.632;2023-08-12T07:31:05;101100.75;;;26.85;49.27
31121;BME280;17770;45.966;13.632;2023-08-12T07:33:31;101096.56;;;26.92;48.94
31121;BME280;17770;45.966;13.632;2023-08-12T07:35:57;101094.16;;;26.80;49.23
31121;BME280;17770;45.966;13.632;2023-08-12T07:38:23;101087.81;;;26.92;49.13
31121;BME280;17770;45.966;13.632;2023-08-12T07:40:49;101090.38;;;27.03;48.47
31121;BME280;17770;45.966;13.632;2023-08-12T07:43:15;101098.03;;;27.06;48.62
31121;BME280;17770;45.966;13.632;2023-08-12T07:45:41;101094.31;;;27.09;48.53
31121;BME280;17770;45.966;13.632;2023-08-12T07:48:07;101088.88;;;27.10;48.53
31121;BME280;17770;45.966;13.632;2023-08-12T07:50:33;101098.34;;;27.13;48.77
31121;BME280;17770;45.966;13.632;2023-08-12T07:52:59;101090.41;;;27.13;48.59
31121;BME280;17770;45.966;13.632;2023-08-12T07:55:24;101092.16;;;27.03;48.78
31121;BME280;17770;45.966;13.632;2023-08-12T07:57:50;101092.31;;;27.01;49.18
31121;BME280;17770;45.966;13.632;2023-08-12T08:00:16;101092.59;;;27.08;49.04
31121;BME280;17770;45.966;13.632;2023-08-12T08:02:42;101095.38;;;27.06;49.38
31121;BME280;17770;45.966;13.632;2023-08-12T08:05:08;101084.94;;;27.05;49.67
31121;BME280;17770;45.966;13.632;2023-08-12T08:07:34;101083.94;;;27.06;49.76
31121;BME280;17770;45.966;13.632;2023-08-12T08:09:59;101083.72;;;27.09;49.24
31121;BME280;17770;45.966;13.632;2023-08-12T08:12:25;101082.59;;;27.11;49.55
31121;BME280;17770;45.966;13.632;2023-08-12T08:14:51;101084.38;;;27.11;49.27
31121;BME280;17770;45.966;13.632;2023-08-12T08:17:17;101085.25;;;27.11;49.35
31121;BME280;17770;45.966;13.632;2023-08-12T08:19:43;101083.16;;;27.15;49.39
31121;BME280;17770;45.966;13.632;2023-08-12T08:22:09;101075.22;;;27.15;49.41
31121;BME280;17770;45.966;13.632;2023-08-12T08:24:34;101069.91;;;27.15;49.67
31121;BME280;17770;45.966;13.632;2023-08-12T08:27:00;101078.72;;;27.15;49.59
31121;BME280;17770;45.966;13.632;2023-08-12T08:29:26;101080.50;;;27.15;49.32
31121;BME280;17770;45.966;13.632;2023-08-12T08:31:52;101078.59;;;27.17;49.79
31121;BME280;17770;45.966;13.632;2023-08-12T08:34:18;101082.91;;;27.18;49.54
31121;BME280;17770;45.966;13.632;2023-08-12T08:36:44;101086.41;;;27.18;49.75
31121;BME280;17770;45.966;13.632;2023-08-12T08:39:09;101075.53;;;27.21;49.61
31121;BME280;17770;45.966;13.632;2023-08-12T08:41:37;101076.22;;;27.23;49.52
31121;BME280;17770;45.966;13.632;2023-08-12T08:44:03;101085.84;;;27.24;49.51
31121;BME280;17770;45.966;13.632;2023-08-12T08:46:32;101076.56;;;27.30;49.51
31121;BME280;17770;45.966;13.632;2023-08-12T08:48:58;101081.59;;;27.33;49.36
31121;BME280;17770;45.966;13.632;2023-08-12T08:51:25;101087.16;;;27.30;49.85
31121;BME280;17770;45.966;13.632;2023-08-12T08:53:51;101074.75;;;27.30;49.25
31121;BME280;17770;45.966;13.632;2023-08-12T08:56:19;101081.16;;;27.28;50.05
31121;BME280;17770;45.966;13.632;2023-08-12T08:58:46;101069.59;;;27.29;49.88
31121;BME280;17770;45.966;13.632;2023-08-12T09:01:12;101078.50;;;27.28;49.72
31121;BME280;17770;45.966;13.632;2023-08-12T09:03:39;101077.41;;;27.30;50.05
31121;BME280;17770;45.966;13.632;2023-08-12T09:06:05;101074.16;;;27.27;50.12
31121;BME280;17770;45.966;13.632;2023-08-12T09:08:32;101080.06;;;27.30;50.27
31121;BME280;17770;45.966;13.632;2023-08-12T09:10:59;101073.63;;;27.33;50.06
31121;BME280;17770;45.966;13.632;2023-08-12T09:13:25;101072.41;;;27.37;49.94
31121;BME280;17770;45.966;13.632;2023-08-12T09:15:51;101073.63;;;27.33;49.91
31121;BME280;17770;45.966;13.632;2023-08-12T09:18:17;101074.06;;;27.38;49.99
31121;BME280;17770;45.966;13.632;2023-08-12T09:20:43;101071.88;;;27.43;50.15
31121;BME280;17770;45.966;13.632;2023-08-12T09:23:09;101066.56;;;27.43;49.79
31121;BME280;17770;45.966;13.632;2023-08-12T09:25:42;101060.16;;;27.45;50.01
31121;BME280;17770;45.966;13.632;2023-08-12T09:28:11;101064.06;;;27.51;49.79
31121;BME280;17770;45.966;13.632;2023-08-12T09:30:37;101056.13;;;27.51;50.31
31121;BME280;17770;45.966;13.632;2023-08-12T09:33:04;101052.06;;;27.47;50.42
31121;BME280;17770;45.966;13.632;2023-08-12T09:35:33;101054.44;;;27.50;50.28
31121;BME280;17770;45.966;13.632;2023-08-12T09:38:00;101040.78;;;27.54;50.45
31121;BME280;17770;45.966;13.632;2023-08-12T09:40:26;101046.78;;;27.56;50.08
31121;BME280;17770;45.966;13.632;2023-08-12T09:42:52;101047.50;;;27.58;49.63
31121;BME280;17770;45.966;13.632;2023-08-12T09:45:18;101037.44;;;27.62;49.91
31121;BME280;17770;45.966;13.632;2023-08-12T09:47:46;101037.19;;;27.65;49.74
31121;BME280;17770;45.966;13.632;2023-08-12T09:50:12;101040.41;;;27.78;49.19
31121;BME280;17770;45.966;13.632;2023-08-12T09:52:39;101029.00;;;27.96;48.55
31121;BME280;17770;45.966;13.632;2023-08-12T09:55:05;101029.81;;;28.06;48.78
31121;BME280;17770;45.966;13.632;2023-08-12T09:57:33;101032.03;;;28.01;49.16
31121;BME280;17770;45.966;13.632;2023-08-12T10:00:02;101029.69;;;28.17;48.45
31121;BME280;17770;45.966;13.632;2023-08-12T10:02:30;101033.72;;;28.22;48.63
31121;BME280;17770;45.966;13.632;2023-08-12T10:04:56;101036.09;;;28.25;48.53
31121;BME280;17770;45.966;13.632;2023-08-12T10:07:24;101034.13;;;28.27;48.50
31121;BME280;17770;45.966;13.632;2023-08-12T10:09:50;101037.16;;;28.41;48.28
31121;BME280;17770;45.966;13.632;2023-08-12T10:12:17;101026.44;;;28.52;48.16
31121;BME280;17770;45.966;13.632;2023-08-12T10:14:44;101023.31;;;28.66;47.97
31121;BME280;17770;45.966;13.632;2023-08-12T10:17:10;101013.94;;;28.72;47.48
31121;BME280;17770;45.966;13.632;2023-08-12T10:19:36;101017.84;;;28.68;47.95
31121;BME280;17770;45.966;13.632;2023-08-12T10:22:03;101017.69;;;28.69;47.72
31121;BME280;17770;45.966;13.632;2023-08-12T10:24:29;101015.72;;;28.81;47.56
31121;BME280;17770;45.966;13.632;2023-08-12T10:26:55;101008.88;;;28.78;48.08
31121;BME280;17770;45.966;13.632;2023-08-12T10:29:24;101008.72;;;28.80;47.97
31121;BME280;17770;45.966;13.632;2023-08-12T10:31:50;101009.22;;;28.93;47.81
31121;BME280;17770;45.966;13.632;2023-08-12T10:34:20;101007.81;;;28.98;47.91
31121;BME280;17770;45.966;13.632;2023-08-12T10:36:46;101008.66;;;28.99;48.17
31121;BME280;17770;45.966;13.632;2023-08-12T10:39:12;101005.06;;;28.90;47.80
31121;BME280;17770;45.966;13.632;2023-08-12T10:41:39;101000.28;;;28.94;47.29
31121;BME280;17770;45.966;13.632;2023-08-12T10:44:15;101002.66;;;28.97;47.08
31121;BME280;17770;45.966;13.632;2023-08-12T10:46:41;101005.97;;;29.08;47.85
31121;BME280;17770;45.966;13.632;2023-08-12T10:49:15;100995.28;;;29.18;47.80
31121;BME280;17770;45.966;13.632;2023-08-12T10:54:28;100988.72;;;29.22;47.26
31121;BME280;17770;45.966;13.632;2023-08-12T11:02:15;100975.94;;;28.98;48.88
31121;BME280;17770;45.966;13.632;2023-08-12T11:04:42;100974.53;;;29.04;49.05
31121;BME280;17770;45.966;13.632;2023-08-12T11:07:14;100978.25;;;29.11;48.35
31121;BME280;17770;45.966;13.632;2023-08-12T11:09:40;100974.09;;;29.08;49.03
31121;BME280;17770;45.966;13.632;2023-08-12T11:12:07;100966.22;;;29.16;49.54
31121;BME280;17770;45.966;13.632;2023-08-12T11:14:33;100966.91;;;29.18;48.89
31121;BME280;17770;45.966;13.632;2023-08-12T11:17:14;100969.25;;;29.21;49.06
31121;BME280;17770;45.966;13.632;2023-08-12T11:19:41;100969.16;;;29.13;48.02
31121;BME280;17770;45.966;13.632;2023-08-12T11:22:07;100975.03;;;29.07;48.41
31121;BME280;17770;45.966;13.632;2023-08-12T11:24:33;100971.72;;;29.05;49.29
31121;BME280;17770;45.966;13.632;2023-08-12T11:27:01;100963.84;;;29.13;48.77
31121;BME280;17770;45.966;13.632;2023-08-12T11:29:28;100961.75;;;29.17;49.28
31121;BME280;17770;45.966;13.632;2023-08-12T11:31:54;100958.72;;;29.29;48.56
31121;BME280;17770;45.966;13.632;2023-08-12T11:34:20;100957.88;;;29.29;48.49
31121;BME280;17770;45.966;13.632;2023-08-12T11:36:46;100960.81;;;29.26;48.81
31121;BME280;17770;45.966;13.632;2023-08-12T11:39:12;100959.31;;;29.23;48.28
31121;BME280;17770;45.966;13.632;2023-08-12T11:41:38;100952.94;;;29.34;48.74
31121;BME280;17770;45.966;13.632;2023-08-12T11:44:04;100947.78;;;29.32;48.32
31121;BME280;17770;45.966;13.632;2023-08-12T11:46:32;100949.69;;;29.40;47.66
31121;BME280;17770;45.966;13.632;2023-08-12T11:48:58;100948.53;;;29.42;48.53
31121;BME280;17770;45.966;13.632;2023-08-12T11:51:24;100943.44;;;29.49;48.16
31121;BME280;17770;45.966;13.632;2023-08-12T11:53:50;100943.38;;;29.41;47.89
31121;BME280;17770;45.966;13.632;2023-08-12T11:56:16;100940.09;;;29.47;48.35
31121;BME280;17770;45.966;13.632;2023-08-12T11:58:43;100935.63;;;29.48;48.47
31121;BME280;17770;45.966;13.632;2023-08-12T12:01:09;100938.44;;;29.46;49.00
31121;BME280;17770;45.966;13.632;2023-08-12T12:03:35;100931.38;;;29.55;48.40
31121;BME280;17770;45.966;13.632;2023-08-12T12:06:01;100932.84;;;29.67;48.20
31121;BME280;17770;45.966;13.632;2023-08-12T12:08:30;100929.94;;;29.78;48.24
31121;BME280;17770;45.966;13.632;2023-08-12T12:10:56;100926.13;;;29.80;47.35
31121;BME280;17770;45.966;13.632;2023-08-12T12:13:22;100929.94;;;29.78;47.91
31121;BME280;17770;45.966;13.632;2023-08-12T12:15:51;100920.66;;;29.82;48.19
31121;BME280;17770;45.966;13.632;2023-08-12T12:18:18;100919.94;;;29.97;47.54
31121;BME280;17770;45.966;13.632;2023-08-12T12:20:56;100924.75;;;29.94;48.14
31121;BME280;17770;45.966;13.632;2023-08-12T12:23:27;100921.75;;;29.97;48.93
31121;BME280;17770;45.966;13.632;2023-08-12T12:25:59;100919.88;;;29.89;48.66
31121;BME280;17770;45.966;13.632;2023-08-12T12:28:25;100914.47;;;29.99;48.42
31121;BME280;17770;45.966;13.632;2023-08-12T12:30:51;100916.16;;;30.00;48.36
31121;BME280;17770;45.966;13.632;2023-08-12T12:33:17;100908.50;;;30.05;49.36
31121;BME280;17770;45.966;13.632;2023-08-12T12:35:43;100909.72;;;30.10;48.01
31121;BME280;17770;45.966;13.632;2023-08-12T12:38:09;100905.91;;;30.13;47.78
31121;BME280;17770;45.966;13.632;2023-08-12T12:40:35;100913.38;;;30.09;48.68
31121;BME280;17770;45.966;13.632;2023-08-12T12:43:01;100904.97;;;30.22;48.91
31121;BME280;17770;45.966;13.632;2023-08-12T12:45:28;100904.84;;;30.23;47.69
31121;BME280;17770;45.966;13.632;2023-08-12T12:47:54;100906.19;;;30.27;48.53